sensor_id;sensor_type;location;lat;lon;timestamp;P1;durP1;ratioP1;P2;durP2;ratioP2
51515;SDS011;37603;55.614;37.326;2023-04-07T00:01:05;4.1;;;1.7;;
51515;SDS011;37603;55.614;37.326;2023-04-07T00:07:04;3.4;;;1.7;;
51515;SDS011;37603;55.614;37.326;2023-04-07T00:13:03;5.4;;;1.7;;
51515;SDS011;37603;55.614;37.326;2023-04-07T00:19:02;4.1;;;1.6;;
51515;SDS011;37603;55.614;37.326;2023-04-07T00:25:01;4.0;;;1.9;;
51515;SDS011;37603;55.614;37.326;2023-04-07T00:31:00;4.2;;;1.6;;
51515;SDS011;37603;55.614;37.326;2023-04-07T00:36:59;3.1;;;1.6;;
51515;SDS011;37603;55.614;37.326;2023-04-07T00:42:58;4.1;;;1.8;;
51515;SDS011;37603;55.614;37.326;2023-04-07T00:48:57;2.8;;;1.8;;
51515;SDS011;37603;55.614;37.326;2023-04-07T00:54:56;4.6;;;1.8;;
51515;SDS011;37603;55.614;37.326;2023-04-07T01:00:56;3.8;;;1.8;;
51515;SDS011;37603;55.614;37.326;2023-04-07T01:06:55;3.3;;;1.9;;
51515;SDS011;37603;55.614;37.326;2023-04-07T01:12:53;4.5;;;1.7;;
51515;SDS011;37603;55.614;37.326;2023-04-07T01:30:49;3.3;;;1.7;;
51515;SDS011;37603;55.614;37.326;2023-04-07T01:36:48;6.0;;;2.0;;
51515;SDS011;37603;55.614;37.326;2023-04-07T01:42:46;4.4;;;1.7;;
51515;SDS011;37603;55.614;37.326;2023-04-07T01:48:45;4.5;;;2.0;;
51515;SDS011;37603;55.614;37.326;2023-04-07T01:54:44;4.3;;;2.0;;
51515;SDS011;37603;55.614;37.326;2023-04-07T02:00:43;4.5;;;2.0;;
51515;SDS011;37603;55.614;37.326;2023-04-07T02:06:43;3.5;;;1.9;;
51515;SDS011;37603;55.614;37.326;2023-04-07T02:12:40;3.0;;;1.8;;
51515;SDS011;37603;55.614;37.326;2023-04-07T02:18:39;4.0;;;2.1;;
51515;SDS011;37603;55.614;37.326;2023-04-07T02:24:40;6.0;;;1.9;;
51515;SDS011;37603;55.614;37.326;2023-04-07T02:30:37;5.2;;;2.1;;
51515;SDS011;37603;55.614;37.326;2023-04-07T02:36:36;2.8;;;1.9;;
51515;SDS011;37603;55.614;37.326;2023-04-07T02:42:35;3.6;;;1.8;;
51515;SDS011;37603;55.614;37.326;2023-04-07T02:48:33;4.7;;;2.1;;
51515;SDS011;37603;55.614;37.326;2023-04-07T02:54:32;4.4;;;1.9;;
51515;SDS011;37603;55.614;37.326;2023-04-07T03:00:32;3.2;;;2.2;;
51515;SDS011;37603;55.614;37.326;2023-04-07T03:06:30;4.8;;;2.2;;
51515;SDS011;37603;55.614;37.326;2023-04-07T03:12:29;4.4;;;2.0;;
51515;SDS011;37603;55.614;37.326;2023-04-07T03:18:27;4.2;;;2.3;;
51515;SDS011;37603;55.614;37.326;2023-04-07T03:24:26;2.9;;;1.9;;
51515;SDS011;37603;55.614;37.326;2023-04-07T03:30:25;4.6;;;2.0;;
51515;SDS011;37603;55.614;37.326;2023-04-07T03:36:24;4.9;;;2.3;;
51515;SDS011;37603;55.614;37.326;2023-04-07T03:42:23;4.8;;;2.0;;
51515;SDS011;37603;55.614;37.326;2023-04-07T03:48:22;5.0;;;2.0;;
51515;SDS011;37603;55.614;37.326;2023-04-07T03:54:20;4.6;;;2.2;;
51515;SDS011;37603;55.614;37.326;2023-04-07T04:00:19;3.9;;;2.1;;
51515;SDS011;37603;55.614;37.326;2023-04-07T04:06:18;5.8;;;2.5;;
51515;SDS011;37603;55.614;37.326;2023-04-07T04:12:17;4.2;;;2.6;;
51515;SDS011;37603;55.614;37.326;2023-04-07T04:18:16;4.9;;;2.4;;
51515;SDS011;37603;55.614;37.326;2023-04-07T04:24:14;7.3;;;2.6;;
51515;SDS011;37603;55.614;37.326;2023-04-07T04:30:13;6.6;;;2.8;;
51515;SDS011;37603;55.614;37.326;2023-04-07T04:42:11;7.7;;;3.1;;
51515;SDS011;37603;55.614;37.326;2023-04-07T04:48:10;7.0;;;2.8;;
51515;SDS011;37603;55.614;37.326;2023-04-07T04:54:09;5.8;;;2.7;;
51515;SDS011;37603;55.614;37.326;2023-04-07T05:00:08;7.9;;;3.1;;
51515;SDS011;37603;55.614;37.326;2023-04-07T05:06:07;8.9;;;2.8;;
51515;SDS011;37603;55.614;37.326;2023-04-07T05:12:05;8.1;;;2.5;;
51515;SDS011;37603;55.614;37.326;2023-04-07T05:18:04;9.2;;;3.0;;
51515;SDS011;37603;55.614;37.326;2023-04-07T05:24:03;8.0;;;3.1;;
51515;SDS011;37603;55.614;37.326;2023-04-07T05:30:02;10.5;;;3.1;;
51515;SDS011;37603;55.614;37.326;2023-04-07T05:36:01;7.3;;;3.1;;
51515;SDS011;37603;55.614;37.326;2023-04-07T05:42:00;8.8;;;2.9;;
51515;SDS011;37603;55.614;37.326;2023-04-07T05:47:59;8.2;;;3.1;;
51515;SDS011;37603;55.614;37.326;2023-04-07T05:54:00;11.1;;;2.9;;
51515;SDS011;37603;55.614;37.326;2023-04-07T05:59:57;7.1;;;3.4;;
51515;SDS011;37603;55.614;37.326;2023-04-07T06:05:57;6.9;;;3.2;;
51515;SDS011;37603;55.614;37.326;2023-04-07T06:11:55;8.2;;;3.0;;
51515;SDS011;37603;55.614;37.326;2023-04-07T06:17:54;10.3;;;3.5;;
51515;SDS011;37603;55.614;37.326;2023-04-07T06:23:54;10.0;;;3.3;;
51515;SDS011;37603;55.614;37.326;2023-04-07T06:29:53;9.9;;;2.9;;
51515;SDS011;37603;55.614;37.326;2023-04-07T06:35:52;10.7;;;3.0;;
51515;SDS011;37603;55.614;37.326;2023-04-07T06:41:51;8.3;;;3.0;;
51515;SDS011;37603;55.614;37.326;2023-04-07T06:47:51;14.7;;;3.7;;
51515;SDS011;37603;55.614;37.326;2023-04-07T06:53:50;16.7;;;4.2;;
51515;SDS011;37603;55.614;37.326;2023-04-07T06:59:49;10.2;;;3.0;;
51515;SDS011;37603;55.614;37.326;2023-04-07T07:05:49;9.2;;;3.1;;
51515;SDS011;37603;55.614;37.326;2023-04-07T07:11:48;13.0;;;3.9;;
51515;SDS011;37603;55.614;37.326;2023-04-07T07:17:47;9.8;;;3.6;;
51515;SDS011;37603;55.614;37.326;2023-04-07T07:23:47;10.0;;;3.5;;
51515;SDS011;37603;55.614;37.326;2023-04-07T07:29:46;10.5;;;3.6;;
51515;SDS011;37603;55.614;37.326;2023-04-07T07:35:46;10.6;;;3.3;;
51515;SDS011;37603;55.614;37.326;2023-04-07T07:41:45;9.7;;;2.9;;
51515;SDS011;37603;55.614;37.326;2023-04-07T07:47:45;10.4;;;2.9;;
51515;SDS011;37603;55.614;37.326;2023-04-07T07:53:44;10.7;;;3.1;;
51515;SDS011;37603;55.614;37.326;2023-04-07T07:59:43;7.2;;;2.7;;
51515;SDS011;37603;55.614;37.326;2023-04-07T08:05:43;8.8;;;3.2;;
51515;SDS011;37603;55.614;37.326;2023-04-07T08:11:42;8.0;;;2.8;;
51515;SDS011;37603;55.614;37.326;2023-04-07T08:17:42;8.6;;;3.0;;
51515;SDS011;37603;55.614;37.326;2023-04-07T08:23:42;13.1;;;2.9;;
51515;SDS011;37603;55.614;37.326;2023-04-07T08:29:41;9.0;;;2.6;;
51515;SDS011;37603;55.614;37.326;2023-04-07T08:35:40;8.1;;;3.1;;
51515;SDS011;37603;55.614;37.326;2023-04-07T08:41:40;9.9;;;2.6;;
51515;SDS011;37603;55.614;37.326;2023-04-07T08:47:40;9.3;;;2.8;;
51515;SDS011;37603;55.614;37.326;2023-04-07T08:53:40;6.2;;;2.4;;
51515;SDS011;37603;55.614;37.326;2023-04-07T08:59:39;6.4;;;2.3;;
51515;SDS011;37603;55.614;37.326;2023-04-07T09:05:38;8.9;;;2.6;;
51515;SDS011;37603;55.614;37.326;2023-04-07T09:11:38;7.8;;;2.5;;
51515;SDS011;37603;55.614;37.326;2023-04-07T09:17:37;6.3;;;2.5;;
51515;SDS011;37603;55.614;37.326;2023-04-07T09:23:37;6.4;;;2.4;;
51515;SDS011;37603;55.614;37.326;2023-04-07T09:29:36;6.5;;;2.5;;
51515;SDS011;37603;55.614;37.326;2023-04-07T09:35:39;6.2;;;2.1;;
51515;SDS011;37603;55.614;37.326;2023-04-07T09:41:34;9.0;;;2.1;;
51515;SDS011;37603;55.614;37.326;2023-04-07T09:47:33;8.3;;;2.7;;
51515;SDS011;37603;55.614;37.326;2023-04-07T09:53:40;10.1;;;2.5;;
51515;SDS011;37603;55.614;37.326;2023-04-07T09:59:32;5.4;;;2.1;;
51515;SDS011;37603;55.614;37.326;2023-04-07T10:05:31;6.3;;;2.2;;
51515;SDS011;37603;55.614;37.326;2023-04-07T10:11:31;4.4;;;2.2;;
51515;SDS011;37603;55.614;37.326;2023-04-07T10:17:30;5.6;;;2.1;;
51515;SDS011;37603;55.614;37.326;2023-04-07T10:23:33;4.9;;;2.2;;
51515;SDS011;37603;55.614;37.326;2023-04-07T10:35:29;5.5;;;1.9;;
51515;SDS011;37603;55.614;37.326;2023-04-07T10:41:31;5.9;;;2.1;;
51515;SDS011;37603;55.614;37.326;2023-04-07T10:47:27;6.6;;;2.1;;
51515;SDS011;37603;55.614;37.326;2023-04-07T10:53:26;4.5;;;1.8;;
51515;SDS011;37603;55.614;37.326;2023-04-07T10:59:26;5.5;;;2.2;;
51515;SDS011;37603;55.614;37.326;2023-04-07T11:05:26;5.8;;;1.7;;
51515;SDS011;37603;55.614;37.326;2023-04-07T11:17:24;4.6;;;1.9;;
51515;SDS011;37603;55.614;37.326;2023-04-07T11:23:23;5.0;;;1.9;;
51515;SDS011;37603;55.614;37.326;2023-04-07T11:29:26;11.5;;;2.2;;
51515;SDS011;37603;55.614;37.326;2023-04-07T11:35:21;5.0;;;1.9;;
51515;SDS011;37603;55.614;37.326;2023-04-07T11:41:21;23.0;;;3.1;;
51515;SDS011;37603;55.614;37.326;2023-04-07T11:47:20;9.8;;;2.1;;
51515;SDS011;37603;55.614;37.326;2023-04-07T11:53:27;4.8;;;1.7;;
51515;SDS011;37603;55.614;37.326;2023-04-07T11:59:19;5.7;;;1.9;;
51515;SDS011;37603;55.614;37.326;2023-04-07T12:05:18;7.8;;;2.0;;
51515;SDS011;37603;55.614;37.326;2023-04-07T12:11:17;4.3;;;1.7;;
51515;SDS011;37603;55.614;37.326;2023-04-07T12:17:20;5.4;;;1.7;;
51515;SDS011;37603;55.614;37.326;2023-04-07T12:23:16;4.8;;;1.7;;
51515;SDS011;37603;55.614;37.326;2023-04-07T12:29:16;4.4;;;2.0;;
51515;SDS011;37603;55.614;37.326;2023-04-07T12:35:15;7.9;;;2.2;;
51515;SDS011;37603;55.614;37.326;2023-04-07T12:41:14;7.5;;;2.2;;
51515;SDS011;37603;55.614;37.326;2023-04-07T12:47:13;4.5;;;2.3;;
51515;SDS011;37603;55.614;37.326;2023-04-07T12:53:12;4.0;;;1.8;;
51515;SDS011;37603;55.614;37.326;2023-04-07T12:59:12;3.8;;;1.7;;
51515;SDS011;37603;55.614;37.326;2023-04-07T13:05:11;5.5;;;2.0;;
51515;SDS011;37603;55.614;37.326;2023-04-07T13:11:10;5.1;;;2.0;;
51515;SDS011;37603;55.614;37.326;2023-04-07T13:17:10;4.7;;;1.9;;
51515;SDS011;37603;55.614;37.326;2023-04-07T13:23:09;10.2;;;2.3;;
51515;SDS011;37603;55.614;37.326;2023-04-07T13:29:08;5.9;;;2.0;;
51515;SDS011;37603;55.614;37.326;2023-04-07T13:35:08;6.4;;;1.8;;
51515;SDS011;37603;55.614;37.326;2023-04-07T13:47:06;6.3;;;1.9;;
51515;SDS011;37603;55.614;37.326;2023-04-07T13:53:06;4.9;;;2.6;;
51515;SDS011;37603;55.614;37.326;2023-04-07T13:59:05;5.0;;;2.5;;
51515;SDS011;37603;55.614;37.326;2023-04-07T14:05:04;7.1;;;2.3;;
51515;SDS011;37603;55.614;37.326;2023-04-07T14:11:04;5.9;;;2.4;;
51515;SDS011;37603;55.614;37.326;2023-04-07T14:17:03;6.3;;;2.2;;
51515;SDS011;37603;55.614;37.326;2023-04-07T14:23:02;5.2;;;2.1;;
51515;SDS011;37603;55.614;37.326;2023-04-07T14:29:01;5.8;;;2.4;;
51515;SDS011;37603;55.614;37.326;2023-04-07T14:35:01;7.9;;;2.1;;
51515;SDS011;37603;55.614;37.326;2023-04-07T14:41:00;6.7;;;1.8;;
51515;SDS011;37603;55.614;37.326;2023-04-07T14:46:59;5.9;;;1.8;;
51515;SDS011;37603;55.614;37.326;2023-04-07T14:52:59;6.6;;;1.9;;
51515;SDS011;37603;55.614;37.326;2023-04-07T14:58:58;4.6;;;1.9;;
51515;SDS011;37603;55.614;37.326;2023-04-07T15:04:57;5.2;;;2.1;;
51515;SDS011;37603;55.614;37.326;2023-04-07T15:10:57;6.5;;;1.9;;
51515;SDS011;37603;55.614;37.326;2023-04-07T15:16:56;7.8;;;2.3;;
51515;SDS011;37603;55.614;37.326;2023-04-07T15:22:55;5.0;;;2.3;;
51515;SDS011;37603;55.614;37.326;2023-04-07T15:28:54;5.2;;;2.2;;
51515;SDS011;37603;55.614;37.326;2023-04-07T15:34:54;6.8;;;2.2;;
51515;SDS011;37603;55.614;37.326;2023-04-07T15:40:53;4.9;;;2.2;;
51515;SDS011;37603;55.614;37.326;2023-04-07T15:46:52;8.6;;;2.9;;
51515;SDS011;37603;55.614;37.326;2023-04-07T15:58:51;8.0;;;3.0;;
51515;SDS011;37603;55.614;37.326;2023-04-07T16:04:50;7.6;;;2.6;;
51515;SDS011;37603;55.614;37.326;2023-04-07T16:10:49;8.4;;;2.7;;
51515;SDS011;37603;55.614;37.326;2023-04-07T16:16:48;7.8;;;3.0;;
51515;SDS011;37603;55.614;37.326;2023-04-07T16:22:48;10.4;;;3.3;;
51515;SDS011;37603;55.614;37.326;2023-04-07T16:28:47;8.9;;;3.4;;
51515;SDS011;37603;55.614;37.326;2023-04-07T16:34:46;7.5;;;3.3;;
51515;SDS011;37603;55.614;37.326;2023-04-07T16:40:45;8.1;;;2.9;;
51515;SDS011;37603;55.614;37.326;2023-04-07T16:46:44;6.2;;;3.0;;
51515;SDS011;37603;55.614;37.326;2023-04-07T16:52:43;10.0;;;3.6;;
51515;SDS011;37603;55.614;37.326;2023-04-07T16:58:43;10.1;;;3.8;;
51515;SDS011;37603;55.614;37.326;2023-04-07T17:04:42;8.8;;;4.0;;
51515;SDS011;37603;55.614;37.326;2023-04-07T17:10:41;9.3;;;3.8;;
51515;SDS011;37603;55.614;37.326;2023-04-07T17:16:40;11.9;;;4.0;;
51515;SDS011;37603;55.614;37.326;2023-04-07T17:22:39;9.1;;;3.4;;
51515;SDS011;37603;55.614;37.326;2023-04-07T17:28:38;10.5;;;3.2;;
51515;SDS011;37603;55.614;37.326;2023-04-07T17:34:37;10.4;;;3.1;;
51515;SDS011;37603;55.614;37.326;2023-04-07T17:40:36;10.9;;;3.3;;
51515;SDS011;37603;55.614;37.326;2023-04-07T17:46:35;8.0;;;3.0;;
51515;SDS011;37603;55.614;37.326;2023-04-07T17:52:34;11.6;;;3.4;;
51515;SDS011;37603;55.614;37.326;2023-04-07T17:58:33;12.6;;;3.9;;
51515;SDS011;37603;55.614;37.326;2023-04-07T18:04:32;13.8;;;4.8;;
51515;SDS011;37603;55.614;37.326;2023-04-07T18:10:32;14.6;;;5.2;;
51515;SDS011;37603;55.614;37.326;2023-04-07T18:16:30;17.2;;;5.1;;
51515;SDS011;37603;55.614;37.326;2023-04-07T18:22:29;11.0;;;4.3;;
51515;SDS011;37603;55.614;37.326;2023-04-07T18:28:28;9.9;;;4.5;;
51515;SDS011;37603;55.614;37.326;2023-04-07T18:34:27;11.5;;;4.1;;
51515;SDS011;37603;55.614;37.326;2023-04-07T18:40:26;10.4;;;3.8;;
51515;SDS011;37603;55.614;37.326;2023-04-07T18:46:26;12.9;;;4.2;;
51515;SDS011;37603;55.614;37.326;2023-04-07T18:52:24;13.3;;;3.9;;
51515;SDS011;37603;55.614;37.326;2023-04-07T18:58:23;12.7;;;3.8;;
51515;SDS011;37603;55.614;37.326;2023-04-07T19:04:22;11.6;;;4.1;;
51515;SDS011;37603;55.614;37.326;2023-04-07T19:10:22;11.2;;;3.7;;
51515;SDS011;37603;55.614;37.326;2023-04-07T19:16:20;9.3;;;3.5;;
51515;SDS011;37603;55.614;37.326;2023-04-07T19:22:19;12.1;;;3.2;;
51515;SDS011;37603;55.614;37.326;2023-04-07T19:28:18;9.0;;;3.2;;
51515;SDS011;37603;55.614;37.326;2023-04-07T19:34:17;7.0;;;2.9;;
51515;SDS011;37603;55.614;37.326;2023-04-07T19:40:16;9.9;;;3.2;;
51515;SDS011;37603;55.614;37.326;2023-04-07T19:46:15;8.6;;;3.0;;
51515;SDS011;37603;55.614;37.326;2023-04-07T19:52:14;7.0;;;2.8;;
51515;SDS011;37603;55.614;37.326;2023-04-07T19:58:13;7.6;;;2.7;;
51515;SDS011;37603;55.614;37.326;2023-04-07T20:04:12;13.2;;;3.2;;
51515;SDS011;37603;55.614;37.326;2023-04-07T20:10:11;9.2;;;2.8;;
51515;SDS011;37603;55.614;37.326;2023-04-07T20:16:10;12.3;;;3.1;;
51515;SDS011;37603;55.614;37.326;2023-04-07T20:22:09;8.2;;;3.0;;
51515;SDS011;37603;55.614;37.326;2023-04-07T20:28:07;8.7;;;3.4;;
51515;SDS011;37603;55.614;37.326;2023-04-07T20:34:07;9.1;;;3.1;;
51515;SDS011;37603;55.614;37.326;2023-04-07T20:40:06;9.3;;;3.3;;
51515;SDS011;37603;55.614;37.326;2023-04-07T20:46:04;8.2;;;3.6;;
51515;SDS011;37603;55.614;37.326;2023-04-07T20:52:03;10.2;;;3.9;;
51515;SDS011;37603;55.614;37.326;2023-04-07T20:58:02;11.8;;;4.5;;
51515;SDS011;37603;55.614;37.326;2023-04-07T21:04:01;12.1;;;4.6;;
51515;SDS011;37603;55.614;37.326;2023-04-07T21:15:59;8.8;;;4.4;;
51515;SDS011;37603;55.614;37.326;2023-04-07T21:21:58;11.3;;;4.1;;
51515;SDS011;37603;55.614;37.326;2023-04-07T21:27:57;8.8;;;4.2;;
51515;SDS011;37603;55.614;37.326;2023-04-07T21:33:56;13.2;;;4.3;;
51515;SDS011;37603;55.614;37.326;2023-04-07T21:39:55;10.5;;;4.6;;
51515;SDS011;37603;55.614;37.326;2023-04-07T21:51:52;13.3;;;4.6;;
51515;SDS011;37603;55.614;37.326;2023-04-07T21:57:51;10.2;;;4.2;;
51515;SDS011;37603;55.614;37.326;2023-04-07T22:03:50;9.5;;;4.0;;
51515;SDS011;37603;55.614;37.326;2023-04-07T22:09:49;10.4;;;3.8;;
51515;SDS011;37603;55.614;37.326;2023-04-07T22:15:48;7.9;;;3.9;;
51515;SDS011;37603;55.614;37.326;2023-04-07T22:21:47;9.7;;;3.8;;
51515;SDS011;37603;55.614;37.326;2023-04-07T22:27:46;7.1;;;3.3;;
51515;SDS011;37603;55.614;37.326;2023-04-07T22:33:44;10.0;;;3.5;;
51515;SDS011;37603;55.614;37.326;2023-04-07T22:39:43;11.2;;;3.3;;
51515;SDS011;37603;55.614;37.326;2023-04-07T22:45:42;10.8;;;3.7;;
51515;SDS011;37603;55.614;37.326;2023-04-07T22:51:41;7.2;;;3.6;;
51515;SDS011;37603;55.614;37.326;2023-04-07T22:57:40;7.3;;;3.4;;
51515;SDS011;37603;55.614;37.326;2023-04-07T23:03:39;11.7;;;3.5;;
51515;SDS011;37603;55.614;37.326;2023-04-07T23:09:38;7.2;;;3.5;;
51515;SDS011;37603;55.614;37.326;2023-04-07T23:15:36;9.5;;;3.6;;
51515;SDS011;37603;55.614;37.326;2023-04-07T23:21:35;8.3;;;3.6;;
51515;SDS011;37603;55.614;37.326;2023-04-07T23:27:34;8.2;;;3.2;;
51515;SDS011;37603;55.614;37.326;2023-04-07T23:33:33;7.2;;;3.6;;
51515;SDS011;37603;55.614;37.326;2023-04-07T23:39:32;6.9;;;3.3;;
51515;SDS011;37603;55.614;37.326;2023-04-07T23:45:31;8.2;;;3.7;;
51515;SDS011;37603;55.614;37.326;2023-04-07T23:51:29;8.0;;;3.5;;
51515;SDS011;37603;55.614;37.326;2023-04-07T23:57:28;6.8;;;3.7;;
